Time;durP1;ratioP1;P1;durP2;ratioP2;P2;SDS_P1;SDS_P2;PMS_P1;PMS_P2;Temp;Humidity;BMP_temperature;BMP_pressure;BME280_temperature;BME280_humidity;BME280_pressure;Samples;Min_cycle;Max_cycle;Signal;HPM_P1;HPM_P2
2021/07/12 05:06:14;;;;;;;;;4.33;4.33;;;;;20.05;63.25;100627.63;5650531;24;46759;-80
2021/07/12 05:08:39;;;;;;;;;4.00;4.00;;;;;20.02;63.03;100618.81;4750783;29;45423;-85
2021/07/12 05:11:05;;;;;;;;;5.00;3.33;;;;;20.11;63.12;100619.53;4772567;29;45253;-83
2021/07/12 05:13:31;;;;;;;;;4.33;4.33;;;;;20.12;63.25;100626.59;4772667;29;45230;-83
2021/07/12 05:15:57;;;;;;;;;4.00;4.00;;;;;20.13;62.96;100620.34;4772496;29;45380;-83
2021/07/12 05:18:23;;;;;;;;;4.00;4.00;;;;;20.15;63.06;100618.53;4772545;29;45168;-83
2021/07/12 05:20:49;;;;;;;;;4.00;4.00;;;;;20.17;62.91;100613.16;4772508;29;45310;-83
2021/07/12 05:23:14;;;;;;;;;4.00;4.00;;;;;20.18;62.77;100609.59;4772678;29;45515;-83
2021/07/12 05:25:39;;;;;;;;;3.00;3.00;;;;;20.19;62.70;100620.22;4772165;29;45423;-83
2021/07/12 05:28:05;;;;;;;;;6.67;5.00;;;;;20.18;62.37;100612.25;4772794;29;45462;-84
2021/07/12 05:30:31;;;;;;;;;4.00;3.00;;;;;20.19;62.48;100608.66;4772834;29;45374;-84
2021/07/12 05:32:57;;;;;;;;;5.00;4.33;;;;;20.17;62.71;100608.69;4772558;29;45350;-83
2021/07/12 05:35:23;;;;;;;;;5.33;4.67;;;;;20.17;62.73;100611.38;4771117;29;45402;-84
2021/07/12 05:37:48;;;;;;;;;8.33;5.33;;;;;20.19;62.92;100605.97;4772994;29;45358;-83
2021/07/12 05:40:14;;;;;;;;;3.33;3.33;;;;;20.17;62.69;100611.38;4773028;29;45353;-83
2021/07/12 05:42:40;;;;;;;;;3.00;3.00;;;;;20.14;62.61;100619.44;4773121;29;45465;-83
2021/07/12 05:45:06;;;;;;;;;4.00;4.00;;;;;20.16;62.70;100612.25;4775027;29;45658;-81
2021/07/12 05:47:31;;;;;;;;;5.00;4.00;;;;;20.15;62.52;100617.66;4790099;29;45160;-81
2021/07/12 05:49:56;;;;;;;;;4.00;4.00;;;;;20.15;62.77;100618.53;4782093;29;44760;-82
2021/07/12 05:52:22;;;;;;;;;4.00;4.00;;;;;20.15;62.68;100628.31;4774543;29;45255;-83
2021/07/12 05:54:47;;;;;;;;;5.00;5.00;;;;;20.12;62.37;100619.47;4776257;29;45985;-83
2021/07/12 05:57:12;;;;;;;;;5.00;5.00;;;;;20.10;62.62;100620.41;4784262;29;44722;-82
2021/07/12 05:59:38;;;;;;;;;3.00;3.00;;;;;20.07;62.90;100615.13;4779477;29;45328;-83
2021/07/12 06:02:04;;;;;;;;;4.00;4.00;;;;;20.06;62.85;100614.25;4772959;29;45295;-83
2021/07/12 06:04:30;;;;;;;;;7.33;5.00;;;;;19.99;63.20;100597.50;4771823;29;46204;-83
2021/07/12 06:06:55;;;;;;;;;4.00;4.00;;;;;20.00;63.07;100598.41;4771810;29;45369;-83
2021/07/12 06:09:21;;;;;;;;;5.00;5.00;;;;;19.98;63.50;100598.44;4771960;29;45348;-84
2021/07/12 06:11:46;;;;;;;;;3.33;3.33;;;;;19.95;63.25;100605.63;4772258;29;45471;-82
2021/07/12 06:14:12;;;;;;;;;5.33;5.00;;;;;19.93;63.59;100608.34;4771845;29;45276;-84
2021/07/12 06:16:37;;;;;;;;;4.33;4.33;;;;;19.92;63.30;100605.72;4771900;29;45331;-83
2021/07/12 06:19:03;;;;;;;;;4.33;4.00;;;;;19.86;63.78;100594.25;4772214;29;45505;-82
2021/07/12 06:21:28;;;;;;;;;4.67;4.67;;;;;19.88;63.81;100596.91;4772256;29;45415;-82
2021/07/12 06:23:54;;;;;;;;;7.00;5.33;;;;;19.83;63.94;100590.78;4775943;29;46077;-89
2021/07/12 06:26:20;;;;;;;;;5.33;5.33;;;;;19.78;64.87;100593.56;4789337;29;44835;-91
2021/07/12 06:28:45;;;;;;;;;6.67;5.00;;;;;19.77;65.32;100591.81;4783998;29;45258;-92
2021/07/12 06:31:11;;;;;;;;;7.00;6.00;;;;;19.74;65.20;100581.22;4780527;29;45201;-91
2021/07/12 06:33:36;;;;;;;;;7.67;6.00;;;;;19.69;64.68;100570.69;4756643;29;46985;-91
2021/07/12 06:36:02;;;;;;;;;5.00;5.00;;;;;19.73;64.87;100575.03;4756906;29;45247;-90
2021/07/12 06:38:29;;;;;;;;;7.00;5.67;;;;;19.67;65.48;100564.50;4772857;29;45311;-91
2021/07/12 06:40:55;;;;;;;;;4.33;4.00;;;;;19.59;65.71;100550.44;4756915;29;45445;-89
2021/07/12 06:43:20;;;;;;;;;9.33;6.67;;;;;19.65;66.38;100569.00;4771840;29;45442;-91
2021/07/12 06:45:45;;;;;;;;;7.67;5.33;;;;;19.55;65.84;100546.97;4773503;29;45426;-90
2021/07/12 06:48:11;;;;;;;;;7.00;6.00;;;;;19.51;66.33;100526.63;4759031;29;45473;-90
2021/07/12 06:50:37;;;;;;;;;7.00;7.00;;;;;19.50;66.80;100519.56;4759445;29;45443;-91
2021/07/12 06:53:02;;;;;;;;;5.00;5.00;;;;;19.48;67.32;100522.25;4759094;29;47270;-91
2021/07/12 06:55:28;;;;;;;;;5.00;5.00;;;;;19.48;67.40;100548.91;4759315;29;45252;-90
2021/07/12 06:57:56;;;;;;;;;7.00;5.67;;;;;19.49;67.63;100568.44;4759456;29;45450;-91
2021/07/12 07:00:22;;;;;;;;;6.67;6.00;;;;;19.47;68.17;100573.81;4759266;29;45578;-91
2021/07/12 07:02:47;;;;;;;;;7.00;7.00;;;;;19.58;67.37;100589.59;4759122;29;47057;-91
2021/07/12 07:05:13;;;;;;;;;7.33;7.00;;;;;19.46;68.32;100585.38;4763311;29;45444;-90
2021/07/12 07:07:38;;;;;;;;;9.00;6.67;;;;;19.41;66.95;100580.19;4770195;29;44719;-90
2021/07/12 07:10:06;;;;;;;;;8.33;6.33;;;;;19.31;67.58;100581.28;4770376;29;44881;-90
2021/07/12 07:12:34;;;;;;;;;8.67;6.00;;;;;19.33;67.48;100579.47;4780660;29;46538;-91
2021/07/12 07:15:09;;;;;;;;;9.33;6.67;;;;;19.33;67.60;100583.00;4779126;29;45457;-91
2021/07/12 07:17:34;;;;;;;;;7.33;6.00;;;;;19.27;67.39;100585.78;4759457;29;45467;-91
2021/07/12 07:19:59;;;;;;;;;5.00;5.00;;;;;19.20;67.61;100576.19;4775682;29;45263;-91
2021/07/12 07:22:35;;;;;;;;;10.67;8.00;;;;;19.28;68.07;100581.34;4775897;29;46229;-90
2021/07/12 07:25:00;;;;;;;;;7.67;6.33;;;;;19.23;67.84;100569.91;4760720;29;45326;-90
2021/07/12 07:27:26;;;;;;;;;11.00;8.00;;;;;19.24;68.34;100591.19;4772030;29;45486;-90
2021/07/12 07:29:51;;;;;;;;;8.33;7.00;;;;;19.27;68.23;100601.78;4760284;29;45413;-92
2021/07/12 07:32:17;;;;;;;;;6.00;6.00;;;;;19.15;68.59;100576.28;4759504;29;46879;-89
2021/07/12 07:34:44;;;;;;;;;6.00;6.00;;;;;19.18;68.82;100583.34;4760995;29;45370;-90
2021/07/12 07:37:10;;;;;;;;;8.67;7.67;;;;;19.20;68.96;100563.75;4760737;29;45411;-91
2021/07/12 07:39:38;;;;;;;;;10.00;7.67;;;;;19.15;69.17;100551.41;4775588;29;45416;-91
2021/07/12 07:42:04;;;;;;;;;9.33;8.00;;;;;19.30;69.67;100583.06;4774573;29;46619;-90
2021/07/12 07:44:30;;;;;;;;;8.00;8.00;;;;;19.28;70.09;100573.34;4758193;29;45356;-92
2021/07/12 07:46:55;;;;;;;;;10.00;7.33;;;;;19.20;69.28;100561.09;4758750;29;45292;-91
2021/07/12 07:49:20;;;;;;;;;6.00;6.00;;;;;19.24;69.28;100555.66;4758815;29;45224;-91
2021/07/12 07:51:49;;;;;;;;;8.00;6.33;;;;;19.26;69.05;100557.41;4758089;29;47288;-90
2021/07/12 07:54:15;;;;;;;;;6.00;6.00;;;;;19.35;69.24;100572.31;4774761;29;45560;-92
2021/07/12 07:56:40;;;;;;;;;6.33;6.00;;;;;19.30;69.10;100560.88;4757944;29;45465;-91
2021/07/12 07:59:06;;;;;;;;;8.33;7.67;;;;;19.24;69.69;100545.00;4774892;29;45424;-91
2021/07/12 08:01:32;;;;;;;;;11.33;10.00;;;;;19.27;69.74;100543.16;4758024;29;46999;-90
2021/07/12 08:03:58;;;;;;;;;6.00;5.67;;;;;19.28;70.15;100533.38;4758326;29;45536;-91
2021/07/12 08:06:23;;;;;;;;;7.67;6.33;;;;;19.33;69.86;100534.16;4774551;29;45505;-90
2021/07/12 08:08:49;;;;;;;;;6.33;5.00;;;;;19.41;70.13;100547.31;4758347;29;45429;-90
2021/07/12 08:11:14;;;;;;;;;7.00;6.67;;;;;19.45;69.54;100564.97;4758372;29;47118;-90
2021/07/12 08:13:45;;;;;;;;;8.33;8.00;;;;;19.32;69.64;100541.28;4774502;29;45188;-91
2021/07/12 08:16:11;;;;;;;;;8.33;6.67;;;;;19.52;69.90;100569.25;4757867;29;45716;-90
2021/07/12 08:18:37;;;;;;;;;5.67;5.67;;;;;19.53;70.23;100562.13;4774978;29;45383;-91
2021/07/12 08:21:04;;;;;;;;;9.00;8.00;;;;;19.50;70.37;100562.22;4758133;29;48104;-90
2021/07/12 08:23:31;;;;;;;;;6.00;5.67;;;;;19.48;69.67;100564.03;4758468;29;45331;-90
2021/07/12 08:25:56;;;;;;;;;6.00;6.00;;;;;19.64;69.97;100578.78;4774370;29;45246;-92
2021/07/12 08:28:24;;;;;;;;;7.00;7.00;;;;;19.52;69.56;100577.25;4758414;29;45393;-90
2021/07/12 08:30:52;;;;;;;;;7.33;7.33;;;;;19.67;69.74;100601.84;4760190;29;48411;-90
2021/07/12 08:33:17;;;;;;;;;7.00;7.00;;;;;19.58;69.35;100591.38;4760183;29;45462;-91
2021/07/12 08:35:42;;;;;;;;;7.00;6.33;;;;;19.59;69.74;100602.00;4758315;29;45394;-89
2021/07/12 08:38:08;;;;;;;;;7.33;6.00;;;;;19.58;69.69;100607.38;4774653;29;45418;-91
2021/07/12 08:40:34;;;;;;;;;4.33;4.00;;;;;19.56;69.53;100600.25;4758015;29;47044;-91
2021/07/12 08:43:00;;;;;;;;;7.33;7.33;;;;;19.64;69.57;100612.56;4776278;29;45427;-93
2021/07/12 08:45:27;;;;;;;;;8.00;6.67;;;;;19.60;69.44;100609.09;4775368;29;45265;-90
2021/07/12 08:47:53;;;;;;;;;7.67;6.00;;;;;19.65;69.75;100625.00;4761744;29;45343;-91
2021/07/12 08:50:20;;;;;;;;;7.00;6.00;;;;;19.55;69.94;100606.53;4794067;29;46397;-91
2021/07/12 08:52:48;;;;;;;;;7.00;7.00;;;;;19.55;69.77;100611.84;4782380;29;44731;-90
2021/07/12 08:55:14;;;;;;;;;9.33;7.33;;;;;19.70;69.78;100632.88;4798758;29;44737;-90
2021/07/12 08:57:40;;;;;;;;;7.67;6.67;;;;;19.64;69.91;100615.22;4771303;29;45285;-91
2021/07/12 09:00:09;;;;;;;;;7.67;7.67;;;;;19.67;69.73;100605.34;4773738;29;45240;-91
2021/07/12 09:02:37;;;;;;;;;8.00;5.33;;;;;19.76;69.50;100622.94;4773879;29;45268;-94
2021/07/12 09:05:07;;;;;;;;;9.33;8.00;;;;;19.72;69.67;100605.25;4757664;29;45466;-90
2021/07/12 09:07:33;;;;;;;;;8.00;8.00;;;;;19.84;69.56;100624.56;4774643;29;45211;-91
2021/07/12 09:10:05;;;;;;;;;8.67;7.00;;;;;19.83;69.69;100617.47;4779799;29;46221;-89
2021/07/12 09:12:45;;;;;;;;;7.33;6.67;;;;;19.88;69.71;100626.25;4771897;29;44711;-89
2021/07/12 09:15:12;;;;;;;;;10.67;8.33;;;;;19.89;69.41;100628.88;4762568;29;45349;-90
2021/07/12 09:17:42;;;;;;;;;7.00;6.00;;;;;19.90;70.04;100635.09;4763301;29;45362;-91
2021/07/12 09:20:10;;;;;;;;;6.67;5.67;;;;;19.91;69.75;100631.50;4777481;29;45262;-90
2021/07/12 09:22:41;;;;;;;;;6.33;6.00;;;;;19.92;69.11;100627.94;4777011;29;45374;-89
2021/07/12 09:25:10;;;;;;;;;9.33;7.33;;;;;19.93;69.59;100629.69;4758262;29;45346;-92
2021/07/12 09:27:38;;;;;;;;;5.67;5.00;;;;;19.82;69.86;100613.06;4774237;29;45298;-92
2021/07/12 09:30:13;;;;;;;;;11.00;6.00;;;;;19.91;69.27;100626.16;4742667;29;47308;-91
2021/07/12 09:32:43;;;;;;;;;7.67;6.67;;;;;19.87;69.38;100627.16;4773638;29;45370;-92
2021/07/12 09:35:11;;;;;;;;;7.67;6.33;;;;;19.86;69.99;100626.25;4757134;29;45201;-91
2021/07/12 09:37:38;;;;;;;;;10.33;9.00;;;;;19.83;69.71;100623.69;4773490;29;45471;-90
2021/07/12 09:40:15;;;;;;;;;7.67;7.00;;;;;19.94;69.29;100644.78;4770746;29;47248;-91
2021/07/12 09:42:45;;;;;;;;;6.00;5.33;;;;;19.82;68.97;100624.59;4756924;29;45630;-90
2021/07/12 09:45:14;;;;;;;;;3.67;3.00;;;;;19.95;69.37;100656.31;4756940;29;45492;-93
2021/07/12 09:47:44;;;;;;;;;6.33;6.00;;;;;19.92;69.25;100649.28;4757150;29;45458;-89
2021/07/12 09:50:16;;;;;;;;;8.33;6.67;;;;;19.88;69.55;100647.59;4773102;29;46442;-93
2021/07/12 09:52:47;;;;;;;;;8.33;7.00;;;;;19.90;69.83;100648.44;4773058;29;45277;-91
2021/07/12 09:55:25;;;;;;;;;5.00;5.00;;;;;19.95;70.27;100648.31;4756839;29;45510;-90
2021/07/12 09:58:10;;;;;;;;;6.00;5.33;;;;;19.96;70.64;100655.41;4756842;29;45501;-91
2021/07/12 10:00:38;;;;;;;;;6.67;5.67;;;;;19.87;70.35;100641.38;4756317;29;47043;-91
2021/07/12 10:03:04;;;;;;;;;8.00;7.00;;;;;19.95;70.48;100649.19;4772659;29;45309;-90
2021/07/12 10:05:31;;;;;;;;;6.67;6.00;;;;;19.92;69.94;100651.06;4771940;29;45381;-91
2021/07/12 10:07:57;;;;;;;;;6.00;5.00;;;;;19.83;69.61;100630.81;4773604;29;45425;-90
2021/07/12 10:10:23;;;;;;;;;7.67;5.67;;;;;19.84;70.39;100629.91;4758591;29;47111;-90
2021/07/12 10:12:48;;;;;;;;;5.00;4.67;;;;;19.94;70.05;100654.56;4777216;29;45405;-92
2021/07/12 10:15:16;;;;;;;;;6.67;6.67;;;;;19.85;70.13;100639.66;4768123;29;45351;-90
2021/07/12 10:17:43;;;;;;;;;9.33;9.00;;;;;19.92;70.01;100651.94;4789096;29;45208;-92
2021/07/12 10:20:11;;;;;;;;;7.00;7.00;;;;;19.87;70.11;100643.16;4781744;29;46521;-90
2021/07/12 10:22:39;;;;;;;;;9.00;8.00;;;;;19.87;70.72;100641.38;4777937;29;45500;-89
2021/07/12 10:25:17;;;;;;;;;6.33;6.33;;;;;19.97;70.27;100654.47;4761293;29;45466;-91
2021/07/12 10:27:57;;;;;;;;;9.67;6.67;;;;;19.90;70.49;100632.44;4777278;29;45239;-90
2021/07/12 10:30:30;;;;;;;;;10.67;9.00;;;;;20.11;70.05;100656.88;4760626;29;48020;-92
2021/07/12 10:33:01;;;;;;;;;10.00;10.00;;;;;20.07;69.99;100636.50;4778312;29;45498;-93
2021/07/12 10:35:36;;;;;;;;;10.67;8.33;;;;;20.21;70.40;100642.41;4760123;29;45294;-92
2021/07/12 10:38:03;;;;;;;;;13.67;11.00;;;;;20.18;69.74;100631.78;4776111;29;45444;-92
2021/07/12 10:40:52;;;;;;;;;11.33;9.00;;;;;20.25;70.25;100612.03;4776110;29;45270;-92
2021/07/12 10:43:42;;;;;;;;;17.33;15.33;;;;;20.53;70.09;100638.94;4766832;29;46122;-91
2021/07/12 10:46:08;;;;;;;;;16.00;11.67;;;;;20.65;71.26;100619.94;4773504;29;44727;-90
2021/07/12 10:48:37;;;;;;;;;8.00;8.00;;;;;21.13;70.45;100633.78;4793345;29;44728;-90
2021/07/12 10:51:18;;;;;;;;;11.33;11.00;;;;;21.46;68.75;100630.19;4798235;29;46403;-90
2021/07/12 10:54:05;;;;;;;;;10.00;9.33;;;;;21.78;68.04;100614.09;4783444;29;45435;-90
2021/07/12 10:56:44;;;;;;;;;12.00;10.00;;;;;21.99;68.64;100595.63;4800917;29;44774;-90
2021/07/12 10:59:30;;;;;;;;;10.67;10.67;;;;;22.45;68.56;100608.38;4773846;29;45256;-89
2021/07/12 11:01:57;;;;;;;;;11.00;11.00;;;;;22.74;68.34;100609.16;4778415;29;45556;-91
2021/07/12 11:04:59;;;;;;;;;13.00;13.00;;;;;23.00;67.03;100603.81;4761988;29;45280;-89
2021/07/12 11:07:39;;;;;;;;;10.67;9.33;;;;;23.27;65.45;100592.97;4759931;29;45380;-89
2021/07/12 11:10:18;;;;;;;;;11.67;9.00;;;;;23.42;63.83;100594.19;4777364;29;45398;-89
2021/07/12 11:12:55;;;;;;;;;11.00;8.67;;;;;23.66;64.07;100582.56;4790561;29;45361;-89
2021/07/12 11:15:23;;;;;;;;;10.00;8.67;;;;;23.93;62.96;100596.69;4774049;29;45338;-88
2021/07/12 11:18:26;;;;;;;;;12.00;11.00;;;;;24.16;63.57;100592.16;4769973;29;44639;-89
2021/07/12 11:20:58;;;;;;;;;10.33;9.00;;;;;24.27;62.08;100585.50;4708955;30;46016;-93
2021/07/12 11:23:46;;;;;;;;;11.00;11.00;;;;;24.46;62.32;100576.63;4729700;30;45414;-88
2021/07/12 11:26:21;;;;;;;;;9.67;9.00;;;;;24.65;61.97;100584.75;4737691;30;45312;-89
2021/07/12 11:28:54;;;;;;;;;14.00;13.33;;;;;24.61;61.88;100575.97;4707724;30;45471;-89
2021/07/12 11:31:38;;;;;;;;;15.00;12.00;;;;;24.79;60.73;100577.91;4720648;30;44791;-91
2021/07/12 11:34:05;;;;;;;;;11.00;11.00;;;;;24.81;60.46;100566.13;4704802;30;47222;-87
2021/07/12 11:36:31;;;;;;;;;11.33;11.33;;;;;24.97;58.52;100573.53;4705468;30;45466;-92
2021/07/12 11:38:57;;;;;;;;;15.00;11.00;;;;;24.96;58.51;100560.97;4720163;30;45316;-90
2021/07/12 11:41:23;;;;;;;;;11.67;10.67;;;;;25.01;57.96;100561.69;4720727;30;45337;-90
2021/07/12 11:44:08;;;;;;;;;8.33;7.00;;;;;25.23;57.47;100579.53;4721403;30;45432;-92
2021/07/12 11:46:34;;;;;;;;;5.00;5.00;;;;;25.20;56.23;100558.13;4720214;30;45398;-88
2021/07/12 11:49:07;;;;;;;;;4.67;4.00;;;;;25.16;55.53;100557.41;4720002;30;45375;-93
2021/07/12 11:51:33;;;;;;;;;7.33;4.67;;;;;25.03;54.98;100551.75;4706182;30;45500;-90
2021/07/12 11:53:58;;;;;;;;;6.33;6.00;;;;;25.01;55.22;100569.75;4728817;29;46436;-91
2021/07/12 11:56:24;;;;;;;;;6.00;5.33;;;;;24.85;55.28;100554.28;4775427;29;45227;-89
2021/07/12 11:58:58;;;;;;;;;5.00;5.00;;;;;24.77;54.16;100551.06;4776835;29;45374;-89
2021/07/12 12:01:26;;;;;;;;;7.00;6.00;;;;;24.69;55.34;100548.75;4761512;29;45371;-92
2021/07/12 12:04:00;;;;;;;;;5.33;5.33;;;;;24.64;55.54;100550.78;4759375;29;47791;-90
2021/07/12 12:06:26;;;;;;;;;5.67;5.67;;;;;24.54;54.34;100539.56;4774246;29;45437;-91
2021/07/12 12:09:02;;;;;;;;;5.33;4.00;;;;;24.60;54.41;100571.53;4774760;29;45350;-89
2021/07/12 12:11:29;;;;;;;;;7.00;5.00;;;;;24.47;54.74;100563.13;4774939;29;45395;-89
2021/07/12 12:13:55;;;;;;;;;6.00;4.33;;;;;24.31;55.17;100546.81;4757814;29;49001;-88
2021/07/12 12:16:29;;;;;;;;;6.00;6.00;;;;;24.29;54.09;100560.31;4757914;29;45315;-88
2021/07/12 12:18:55;;;;;;;;;7.67;5.33;;;;;24.13;54.54;100557.41;4774537;29;45568;-88
2021/07/12 12:21:23;;;;;;;;;8.00;6.00;;;;;24.05;55.30;100562.19;4774397;29;45349;-89
2021/07/12 12:23:53;;;;;;;;;6.67;5.33;;;;;24.05;55.18;100570.25;4774811;29;47248;-90
2021/07/12 12:26:26;;;;;;;;;6.00;5.33;;;;;23.94;55.34;100576.09;4764252;29;45490;-89
2021/07/12 12:28:57;;;;;;;;;4.67;4.67;;;;;23.86;56.01;100581.75;4776018;29;45343;-88
2021/07/12 12:31:28;;;;;;;;;6.00;4.00;;;;;23.64;57.49;100577.28;4774583;29;45232;-89
2021/07/12 12:34:05;;;;;;;;;6.33;4.00;;;;;23.36;58.95;100575.66;4773978;29;45390;-89
2021/07/12 12:36:36;;;;;;;;;7.00;6.33;;;;;23.21;59.58;100558.34;4758085;29;45425;-92
2021/07/12 12:39:10;;;;;;;;;5.00;5.00;;;;;23.26;61.06;100588.53;4757993;29;45496;-90
2021/07/12 12:41:45;;;;;;;;;7.33;6.33;;;;;22.99;60.80;100560.03;4774626;29;45364;-91
2021/07/12 12:44:13;;;;;;;;;5.67;5.67;;;;;22.92;60.90;100553.16;4759300;29;48183;-93
2021/07/12 12:46:49;;;;;;;;;8.00;5.33;;;;;22.95;61.98;100579.00;4779425;29;45374;-92
2021/07/12 12:49:29;;;;;;;;;7.00;6.67;;;;;22.85;61.73;100573.97;4771203;29;45371;-90
2021/07/12 12:51:58;;;;;;;;;4.00;4.00;;;;;22.84;62.78;100579.38;4765583;29;45594;-90
2021/07/12 12:54:35;;;;;;;;;5.00;5.00;;;;;22.75;62.95;100568.06;4759406;29;47466;-90
2021/07/12 12:57:07;;;;;;;;;6.00;6.00;;;;;22.62;63.85;100551.53;4774416;29;45271;-89
2021/07/12 12:59:39;;;;;;;;;5.33;5.33;;;;;22.73;62.67;100575.28;4773746;29;45464;-89
2021/07/12 13:02:12;;;;;;;;;9.00;7.00;;;;;22.56;62.78;100558.00;4774936;29;45397;-94
2021/07/12 13:04:48;;;;;;;;;6.00;6.00;;;;;22.64;63.38;100576.47;4758536;29;47148;-93
2021/07/12 13:07:23;;;;;;;;;7.33;5.00;;;;;22.58;62.29;100575.78;4775421;29;45248;-93
2021/07/12 13:10:12;;;;;;;;;6.00;6.00;;;;;22.46;62.11;100569.97;4758964;29;45476;-93
2021/07/12 13:13:07;;;;;;;;;8.00;6.00;;;;;22.45;63.07;100584.25;4762422;29;45577;-94
2021/07/12 13:15:35;;;;;;;;;6.00;6.00;;;;;22.42;64.36;100581.72;4787797;29;46474;-95
2021/07/12 13:18:12;;;;;;;;;6.00;6.00;;;;;22.35;64.04;100569.44;4795368;29;45036;-93
2021/07/12 13:20:47;;;;;;;;;6.00;6.00;;;;;22.37;64.25;100556.88;4792893;29;45253;-93
2021/07/12 13:23:13;;;;;;;;;6.67;6.67;;;;;22.36;63.09;100545.28;4779135;29;45211;-94
2021/07/12 13:25:42;;;;;;;;;9.00;8.00;;;;;22.45;62.87;100554.81;4776860;29;47368;-93
2021/07/12 13:28:14;;;;;;;;;6.33;6.33;;;;;22.42;62.68;100545.06;4777428;29;45396;-93
2021/07/12 13:30:45;;;;;;;;;7.33;6.33;;;;;22.53;63.50;100552.72;4776438;29;45365;-92
2021/07/12 13:33:13;;;;;;;;;6.00;4.67;;;;;22.48;64.21;100533.28;4775635;29;45536;-93
2021/07/12 13:35:42;;;;;;;;;6.00;6.00;;;;;22.55;62.02;100534.78;4777271;29;47175;-92
2021/07/12 13:38:10;;;;;;;;;9.33;9.33;;;;;22.64;62.77;100536.28;4775430;29;45366;-93
2021/07/12 13:40:37;;;;;;;;;8.00;8.00;;;;;22.62;62.33;100534.56;4774063;29;45248;-94
2021/07/12 13:43:03;;;;;;;;;8.00;8.00;;;;;22.70;61.64;100545.91;4776197;29;45222;-93
2021/07/12 13:45:31;;;;;;;;;10.00;9.00;;;;;22.67;62.15;100538.84;4774316;29;47251;-94
2021/07/12 13:47:57;;;;;;;;;8.00;8.00;;;;;22.69;62.10;100543.31;4774209;29;45344;-94
2021/07/12 13:50:28;;;;;;;;;7.67;7.67;;;;;22.54;61.87;100518.78;4775370;29;45362;-94
2021/07/12 13:52:54;;;;;;;;;7.00;7.00;;;;;22.52;63.07;100524.22;4780036;29;45269;-94
2021/07/12 13:55:21;;;;;;;;;7.33;6.00;;;;;22.55;63.17;100534.78;4780183;29;48132;-93
2021/07/12 13:57:53;;;;;;;;;7.00;6.00;;;;;22.56;63.40;100536.56;4787138;29;44749;-93
2021/07/12 14:00:21;;;;;;;;;7.00;7.00;;;;;22.42;64.57;100528.16;4790748;29;45225;-93
2021/07/12 14:02:47;;;;;;;;;7.67;6.67;;;;;22.46;65.04;100536.94;4792705;29;44790;-92
2021/07/12 14:05:17;;;;;;;;;7.00;6.50;;;;;22.47;65.72;100544.03;4796488;29;46297;-90
2021/07/12 14:07:44;;;;;;;;;8.67;7.00;;;;;22.30;65.98;100519.63;4791332;29;45232;-91
2021/07/12 14:10:13;;;;;;;;;9.33;6.67;;;;;22.47;65.01;100552.94;4781174;29;45175;-90
2021/07/12 14:12:40;;;;;;;;;5.00;5.00;;;;;22.35;64.50;100507.88;4776415;29;45417;-93
2021/07/12 14:15:08;;;;;;;;;5.00;5.00;;;;;22.53;63.97;100533.97;4776857;29;48135;-94
2021/07/12 14:17:34;;;;;;;;;8.67;7.33;;;;;22.58;64.75;100527.56;4778577;29;45361;-94
2021/07/12 14:20:00;;;;;;;;;7.00;7.00;;;;;22.55;65.38;100524.09;4779791;29;45267;-93
2021/07/12 14:22:30;;;;;;;;;8.00;8.00;;;;;22.48;66.04;100501.16;4781431;29;45494;-93
2021/07/12 14:24:55;;;;;;;;;9.00;7.67;;;;;22.59;65.95;100524.00;4780052;29;47795;-92
2021/07/12 14:27:24;;;;;;;;;8.67;7.67;;;;;22.55;66.09;100509.81;4779085;29;45601;-92
2021/07/12 14:29:50;;;;;;;;;12.67;10.67;;;;;22.59;66.27;100526.66;4778231;29;45416;-91
2021/07/12 14:32:16;;;;;;;;;6.67;6.67;;;;;22.58;66.82;100516.88;4778347;29;45398;-93
2021/07/12 14:34:43;;;;;;;;;8.67;7.33;;;;;22.49;65.66;100507.34;4777465;29;45682;-91
2021/07/12 14:37:09;;;;;;;;;7.33;6.33;;;;;22.48;64.83;100506.50;4780200;29;45418;-93
2021/07/12 14:39:35;;;;;;;;;6.00;6.00;;;;;22.49;64.84;100507.34;4776249;29;45345;-91
2021/07/12 14:42:03;;;;;;;;;7.67;7.67;;;;;22.42;65.18;100496.00;4780942;29;45227;-90
2021/07/12 14:44:31;;;;;;;;;8.33;8.33;;;;;22.44;64.86;100499.50;4777530;29;47235;-92
2021/07/12 14:47:00;;;;;;;;;8.33;8.33;;;;;22.55;64.08;100516.06;4772284;29;45433;-92
2021/07/12 14:49:26;;;;;;;;;7.67;7.00;;;;;22.62;63.08;100522.06;4774110;29;45282;-92
2021/07/12 14:51:51;;;;;;;;;6.33;6.33;;;;;22.54;65.21;100500.91;4774247;29;45333;-93
2021/07/12 14:54:17;;;;;;;;;8.00;8.00;;;;;22.65;64.74;100511.22;4774824;29;45284;-94
2021/07/12 14:56:42;;;;;;;;;8.33;6.67;;;;;22.56;64.54;100482.09;4774720;29;45609;-93
2021/07/12 14:59:08;;;;;;;;;6.33;6.33;;;;;22.70;64.97;100507.53;4776628;29;45168;-94
2021/07/12 15:01:33;;;;;;;;;9.00;9.00;;;;;22.62;63.87;100489.91;4775542;29;45437;-93
2021/07/12 15:04:00;;;;;;;;;10.00;8.00;;;;;22.74;64.90;100507.34;4775902;29;45474;-94
2021/07/12 15:06:29;;;;;;;;;8.67;7.00;;;;;22.68;63.14;100496.88;4775263;29;45454;-95
2021/07/12 15:08:55;;;;;;;;;6.00;6.00;;;;;22.65;62.22;100492.47;4780534;29;45497;-93
2021/07/12 15:11:21;;;;;;;;;7.00;6.00;;;;;22.76;64.23;100505.50;4778678;29;45361;-92
2021/07/12 15:13:46;;;;;;;;;8.00;8.00;;;;;22.73;64.08;100497.59;4777314;29;48176;-93
2021/07/12 15:16:12;;;;;;;;;6.00;6.00;;;;;22.72;62.94;100501.19;4781630;29;45260;-92
2021/07/12 15:18:37;;;;;;;;;6.67;6.33;;;;;22.67;61.03;100501.34;4796486;29;44727;-92
2021/07/12 15:21:03;;;;;;;;;8.00;7.00;;;;;22.62;60.29;100499.75;4799195;29;44663;-89
2021/07/12 15:23:29;;;;;;;;;7.00;7.00;;;;;22.61;61.49;100496.19;4798494;29;46268;-94
2021/07/12 15:25:54;;;;;;;;;6.67;6.00;;;;;22.61;60.60;100496.19;4781243;29;45183;-94
2021/07/12 15:28:22;;;;;;;;;5.00;5.00;;;;;22.64;59.50;100489.84;4778264;29;45239;-91
2021/07/12 15:30:48;;;;;;;;;4.00;4.00;;;;;22.83;60.36;100505.25;4778348;29;45347;-94
2021/07/12 15:33:13;;;;;;;;;7.67;7.00;;;;;22.77;60.82;100496.53;4778455;29;45255;-92
2021/07/12 15:35:41;;;;;;;;;7.00;7.00;;;;;22.84;61.36;100501.66;4779198;29;45355;-95
2021/07/12 15:38:06;;;;;;;;;8.00;8.00;;;;;22.84;59.99;100502.56;4779935;29;44783;-94
2021/07/12 15:40:35;;;;;;;;;7.67;6.33;;;;;22.88;60.29;100503.28;4778357;29;45549;-93
2021/07/12 15:43:00;;;;;;;;;6.00;6.00;;;;;22.82;58.91;100485.66;4778569;29;47077;-94
2021/07/12 15:45:25;;;;;;;;;9.00;6.33;;;;;22.83;60.61;100484.72;4778209;29;45393;-93
2021/07/12 15:47:51;;;;;;;;;6.00;5.00;;;;;22.83;61.38;100484.72;4778550;29;45429;-94
2021/07/12 15:50:16;;;;;;;;;6.00;6.00;;;;;22.87;61.08;100490.81;4787881;29;45517;-95
2021/07/12 15:52:44;;;;;;;;;5.00;5.00;;;;;22.97;61.32;100494.03;4794416;29;48038;-93
2021/07/12 15:55:10;;;;;;;;;7.67;7.00;;;;;22.89;61.50;100487.16;4798471;29;44690;-91
2021/07/12 15:57:38;;;;;;;;;9.67;7.67;;;;;22.96;61.10;100487.78;4799023;29;44747;-94
2021/07/12 16:00:09;;;;;;;;;5.00;5.00;;;;;23.00;59.73;100496.59;4800918;29;45560;-91
2021/07/12 16:02:36;;;;;;;;;6.00;6.00;;;;;22.88;59.40;100471.13;4800083;29;47949;-93
2021/07/12 16:05:21;;;;;;;;;5.67;5.67;;;;;22.98;60.19;100490.41;4799144;29;44772;-95
2021/07/12 16:07:47;;;;;;;;;9.00;6.00;;;;;22.84;59.75;100469.50;4771291;29;45237;-95
2021/07/12 16:10:13;;;;;;;;;8.67;8.00;;;;;22.81;60.11;100473.19;4784041;29;45014;-93
2021/07/12 16:12:42;;;;;;;;;7.00;7.00;;;;;22.76;59.84;100476.03;4789226;29;45460;-93
2021/07/12 16:15:10;;;;;;;;;7.00;6.00;;;;;22.81;59.39;100485.69;4788251;29;45418;-92
2021/07/12 16:17:38;;;;;;;;;8.00;6.33;;;;;22.75;59.37;100473.41;4789821;29;45221;-94
2021/07/12 16:20:15;;;;;;;;;10.00;7.00;;;;;22.74;59.84;100463.59;4790147;29;45302;-94
2021/07/12 16:22:43;;;;;;;;;8.00;8.00;;;;;22.77;59.98;100468.88;4791167;29;47488;-95
2021/07/12 16:25:10;;;;;;;;;7.00;7.00;;;;;22.85;60.59;100481.97;4791070;29;45478;-94
2021/07/12 16:27:36;;;;;;;;;7.33;7.33;;;;;22.75;61.19;100454.66;4789844;29;45137;-95
2021/07/12 16:30:06;;;;;;;;;9.33;6.00;;;;;22.86;61.81;100478.38;4789106;29;45147;-94
2021/07/12 16:32:35;;;;;;;;;6.33;6.33;;;;;22.84;61.46;100474.88;4801520;29;46462;-94
2021/07/12 16:35:00;;;;;;;;;7.00;6.00;;;;;22.72;61.97;100449.41;4787006;29;45888;-93
2021/07/12 16:37:29;;;;;;;;;8.00;7.00;;;;;22.87;61.70;100482.78;4784304;29;44744;-94